Hauptseite
METAR-TAF:

METAR-TAF

Flughäfen :

Genua, Italien

Flughafen Genua

Breite: 44-25N, Länge: 008-51E, Höhe: 2 m

Beobachtung

Neuester Wetterbericht von vor 34 Minuten, um 21:20 UTC
Wind 11 kt aus Nord, Böen bis zu 21 kt, variierte zwischen Nordwest und Nordost
Temperatur 1°C
Luftfeuchtigkeit 47%
Luftdruck 1011 hPa
Sichtweite 10 km oder mehr
Leicht bewölkt in der Höhe von 2500 ft
Durchbrochene Bewölkung in der Höhe von 6000 ft

METAR: LIMJ 252120Z 36011G21KT 320V050 9999 FEW025 BKN060 01/M09 Q1011

Zeit: 22:54 (21:54 UTC)

Prognose

Neuester Wetterbericht von vor 4 Stunden und 54 Minuten, um 17:00 UTC
Gültige Prognose vom 25 um 18 UTC bis 26 um 18 UTC
Wind 15 kt aus Nord
Sichtweite 10 km oder mehr
Aufgelockert bewölkt in der Höhe von 2500 ft
Durchbrochene Bewölkung in der Höhe von 5000 ft

TAF: LIMJ 251700Z 2518/2618 01015KT 9999 SCT025 BKN050

Wetterbeobachtungen und Prognosen von mehr als 4000 Flughäfen (METAR und TAF Bericht).

Die verfügbaren Stationen werden durch gelbe und rote Markierungen auf der Karte dargestellt.

Führen Sie die Maus auf sie, um den Namen der Station zu sehen.

Darauf klicken, um die Beobachtung von Wetterbeobachtungen und Prognosen zu sehen.

Um die Karte zu ändern : klicken Sie auf den grünen Tasten mit einem schwarzen Kreuz Zum Vergrößern, auf den grünen Button mit einem Gedankenstrich zu verkleinern, oder auf die grünen Pfeile für benachbarte Karten.


METAR-TAF: